This is the latest recevied weather packets stored in our database for station/object K9RCP-24. If no packets are shown the sender has not sent any weather packets the latest 10 day(s).
| Time | Temp. | Humidity | Pressure | Rain* | Wind** | Luminosity | Snow |
|---|---|---|---|---|---|---|---|
| 1777430101 | 13.33° C | 54% | 1027.1 hPa | 0 mm | - | - | - |
| 1777428821 | 14.44° C | 50% | 1027.1 hPa | 0 mm | - | - | - |
| 1777428676 | 14.44° C | 48% | 1027.1 hPa | 0 mm | - | - | - |
| 1777427101 | 15.56° C | 46% | 1027.1 hPa | 0 mm | - | - | - |
| 1777426227 | 16.11° C | 45% | 1027.1 hPa | 0 mm | - | - | - |
| 1777426101 | 16.11° C | 45% | 1027.4 hPa | 0 mm | - | - | - |
| 1777425475 | 15.56° C | 47% | 1027.1 hPa | 0 mm | - | - | - |
| 1777424784 | 15.56° C | 47% | 1026.8 hPa | 0 mm | - | - | - |
| 1777424376 | 15.56° C | 46% | 1027.1 hPa | 0 mm | - | - | - |
| 1777423098 | 15.56° C | 46% | 1027.1 hPa | 0 mm | - | - | - |
| 1777422813 | 15.56° C | 45% | 1026.8 hPa | 0 mm | - | - | - |
| 1777420733 | 15° C | 48% | 1027.4 hPa | 0 mm | - | - | - |
| 1777420351 | 15° C | 46% | 1027.4 hPa | 0 mm | - | - | - |
| 1777420228 | 15° C | 46% | 1027.4 hPa | 0 mm | - | - | - |
| 1777420082 | 15.56° C | 46% | 1027.1 hPa | 0 mm | - | - | - |
| 1777419296 | 15.56° C | 45% | 1027.1 hPa | 0 mm | - | - | - |
| 1777418428 | 16.11° C | 44% | 1027.4 hPa | 0 mm | - | - | - |
| 1777417801 | 16.67° C | 41% | 1027.4 hPa | 0 mm | - | - | - |
| 1777415601 | 15.56° C | 43% | 1027.4 hPa | 0 mm | - | - | - |
| 1777415219 | 15.56° C | 42% | 1027.8 hPa | 0 mm | - | - | - |
| 1777415095 | 15.56° C | 43% | 1027.8 hPa | 0 mm | - | - | - |
| 1777414817 | 15.56° C | 44% | 1027.8 hPa | 0 mm | - | - | - |
| 1777414038 | 15.56° C | 45% | 1027.8 hPa | 0 mm | - | - | - |
| 1777413520 | 15° C | 48% | 1027.8 hPa | 0 mm | - | - | - |
| 1777411896 | 15° C | 47% | 1028.1 hPa | 0 mm | - | - | - |
* Rain latest hour (hover to see other rain measurements)
** Current wind speed in m/s (hover to see current wind gust speed)